South Hero, Vermont
Current Conditions -  °F | °C
As of 2:53 PM on Monday 24 Nov 2014 (Local Time) from KPBG Reporting Station
Scattered Clouds Scattered Clouds  
Wind Chill: 67°   Ceiling: Unl
Heat Index: 67°   Visibility: 10mi
Dew Point: 55°   Wind: 13mph
Humidity: 66%   Direction: 170°S
Pressure: 29.33"   Gusts: 22mph
Location:  44.65°N, 73.3°W
Report Text: KPBG 241953Z AUTO 17011G19KT 10SM SCT060 19/13 A2933 RMK AO2 SLP932 T01940128
Loading
Personal Weather Stations






























Interactive Weather Map New forecast layout! Learn more

10-Day Weather Forecast

Advertisements
Track Severe Weather on mobile